sensor_id;sensor_type;location;lat;lon;timestamp;pressure;altitude;pressure_sealevel;temperature;humidity
56052;BME280;41919;42.648;23.384;2023-09-12T00:00:54;94685.56;;;14.39;71.66
56052;BME280;41919;42.648;23.384;2023-09-12T00:03:20;94702.97;;;14.51;72.36
56052;BME280;41919;42.648;23.384;2023-09-12T00:05:53;94764.88;;;14.84;72.97
56052;BME280;41919;42.648;23.384;2023-09-12T00:08:19;94701.13;;;14.40;73.09
56052;BME280;41919;42.648;23.384;2023-09-12T00:10:45;94697.31;;;14.36;74.56
56052;BME280;41919;42.648;23.384;2023-09-12T00:13:10;94726.06;;;14.49;75.33
56052;BME280;41919;42.648;23.384;2023-09-12T00:15:36;94764.47;;;14.69;76.30
56052;BME280;41919;42.648;23.384;2023-09-12T00:18:01;94729.25;;;14.51;77.75
56052;BME280;41919;42.648;23.384;2023-09-12T00:20:27;94765.81;;;14.60;79.65
56052;BME280;41919;42.648;23.384;2023-09-12T00:22:53;94747.78;;;14.45;82.14
56052;BME280;41919;42.648;23.384;2023-09-12T00:25:20;94768.38;;;14.48;84.24
56052;BME280;41919;42.648;23.384;2023-09-12T00:27:45;94701.41;;;14.02;85.01
56052;BME280;41919;42.648;23.384;2023-09-12T00:30:11;94774.50;;;14.42;86.32
56052;BME280;41919;42.648;23.384;2023-09-12T00:32:37;94716.88;;;14.10;86.93
56052;BME280;41919;42.648;23.384;2023-09-12T00:35:02;94773.13;;;14.39;87.23
56052;BME280;41919;42.648;23.384;2023-09-12T00:37:28;94765.66;;;14.36;87.58
56052;BME280;41919;42.648;23.384;2023-09-12T00:39:53;94689.97;;;13.96;87.50
56052;BME280;41919;42.648;23.384;2023-09-12T00:42:19;94771.97;;;14.35;89.12
56052;BME280;41919;42.648;23.384;2023-09-12T00:44:44;94777.00;;;14.37;89.17
56052;BME280;41919;42.648;23.384;2023-09-12T00:47:10;94759.78;;;14.22;89.52
56052;BME280;41919;42.648;23.384;2023-09-12T00:49:37;94774.75;;;14.22;89.74
56052;BME280;41919;42.648;23.384;2023-09-12T00:52:04;94778.06;;;14.17;89.15
56052;BME280;41919;42.648;23.384;2023-09-12T00:54:30;94771.28;;;14.09;88.22
56052;BME280;41919;42.648;23.384;2023-09-12T00:56:55;94680.06;;;13.43;88.34
56052;BME280;41919;42.648;23.384;2023-09-12T00:59:21;94774.75;;;14.03;86.75
56052;BME280;41919;42.648;23.384;2023-09-12T01:01:47;94734.31;;;13.86;86.09
56052;BME280;41919;42.648;23.384;2023-09-12T01:04:13;94774.16;;;14.01;84.85
56052;BME280;41919;42.648;23.384;2023-09-12T01:06:39;94773.81;;;13.98;84.96
56052;BME280;41919;42.648;23.384;2023-09-12T01:09:05;94776.59;;;14.03;84.54
56052;BME280;41919;42.648;23.384;2023-09-12T01:11:31;94793.66;;;14.12;84.07
56052;BME280;41919;42.648;23.384;2023-09-12T01:13:56;94790.16;;;14.18;83.33
56052;BME280;41919;42.648;23.384;2023-09-12T01:16:21;94763.66;;;14.01;83.02
56052;BME280;41919;42.648;23.384;2023-09-12T01:18:47;94781.41;;;14.06;83.06
56052;BME280;41919;42.648;23.384;2023-09-12T01:26:44;94781.94;;;13.96;83.63
56052;BME280;41919;42.648;23.384;2023-09-12T01:29:15;94799.06;;;13.99;84.03
56052;BME280;41919;42.648;23.384;2023-09-12T01:31:41;94754.47;;;13.73;82.83
56052;BME280;41919;42.648;23.384;2023-09-12T01:34:12;94745.44;;;13.69;82.59
56052;BME280;41919;42.648;23.384;2023-09-12T01:36:38;94790.25;;;14.11;81.64
56052;BME280;41919;42.648;23.384;2023-09-12T01:39:03;94745.00;;;13.91;79.73
56052;BME280;41919;42.648;23.384;2023-09-12T01:41:31;94784.09;;;14.18;79.03
56052;BME280;41919;42.648;23.384;2023-09-12T01:43:57;94787.81;;;14.28;78.46
56052;BME280;41919;42.648;23.384;2023-09-12T01:46:25;94807.81;;;14.29;77.88
56052;BME280;41919;42.648;23.384;2023-09-12T01:48:52;94792.25;;;14.28;76.66
56052;BME280;41919;42.648;23.384;2023-09-12T01:51:19;94738.69;;;13.92;76.42
56052;BME280;41919;42.648;23.384;2023-09-12T01:53:45;94787.31;;;14.20;76.67
56052;BME280;41919;42.648;23.384;2023-09-12T01:56:13;94804.97;;;14.31;77.75
56052;BME280;41919;42.648;23.384;2023-09-12T01:58:39;94796.22;;;14.19;78.49
56052;BME280;41919;42.648;23.384;2023-09-12T02:01:04;94792.94;;;14.05;78.89
56052;BME280;41919;42.648;23.384;2023-09-12T02:03:30;94801.69;;;13.99;79.53
56052;BME280;41919;42.648;23.384;2023-09-12T02:05:55;94781.03;;;13.84;80.09
56052;BME280;41919;42.648;23.384;2023-09-12T02:08:22;94796.06;;;13.95;80.68
56052;BME280;41919;42.648;23.384;2023-09-12T02:10:47;94789.41;;;14.11;79.88
56052;BME280;41919;42.648;23.384;2023-09-12T02:13:12;94767.19;;;14.14;78.93
56052;BME280;41919;42.648;23.384;2023-09-12T02:15:38;94798.84;;;14.37;78.33
56052;BME280;41919;42.648;23.384;2023-09-12T02:18:03;94765.75;;;14.29;77.63
56052;BME280;41919;42.648;23.384;2023-09-12T02:20:29;94791.66;;;14.63;77.45
56052;BME280;41919;42.648;23.384;2023-09-12T02:22:55;94789.47;;;14.60;76.69
56052;BME280;41919;42.648;23.384;2023-09-12T02:25:20;94811.88;;;14.81;76.73
56052;BME280;41919;42.648;23.384;2023-09-12T02:27:45;94721.16;;;14.23;76.21
56052;BME280;41919;42.648;23.384;2023-09-12T02:30:11;94794.25;;;14.81;75.88
56052;BME280;41919;42.648;23.384;2023-09-12T02:32:36;94813.06;;;14.97;75.35
56052;BME280;41919;42.648;23.384;2023-09-12T02:35:02;94791.94;;;14.73;75.85
56052;BME280;41919;42.648;23.384;2023-09-12T02:37:28;94811.25;;;14.48;77.70
56052;BME280;41919;42.648;23.384;2023-09-12T02:39:53;94810.50;;;14.41;78.21
56052;BME280;41919;42.648;23.384;2023-09-12T02:42:18;94766.00;;;14.09;78.62
56052;BME280;41919;42.648;23.384;2023-09-12T02:44:44;94746.72;;;13.79;79.03
56052;BME280;41919;42.648;23.384;2023-09-12T02:47:09;94755.34;;;13.67;79.57
56052;BME280;41919;42.648;23.384;2023-09-12T02:49:34;94824.09;;;13.83;81.36
56052;BME280;41919;42.648;23.384;2023-09-12T02:52:00;94817.38;;;13.87;80.75
56052;BME280;41919;42.648;23.384;2023-09-12T02:54:25;94762.03;;;13.63;79.83
56052;BME280;41919;42.648;23.384;2023-09-12T02:56:51;94811.09;;;13.88;79.89
56052;BME280;41919;42.648;23.384;2023-09-12T02:59:16;94798.25;;;13.80;80.33
56052;BME280;41919;42.648;23.384;2023-09-12T03:01:41;94787.31;;;13.83;80.08
56052;BME280;41919;42.648;23.384;2023-09-12T03:04:07;94813.59;;;14.01;79.29
56052;BME280;41919;42.648;23.384;2023-09-12T03:06:32;94753.94;;;13.65;79.02
56052;BME280;41919;42.648;23.384;2023-09-12T03:08:58;94796.06;;;13.95;78.77
56052;BME280;41919;42.648;23.384;2023-09-12T03:11:26;94800.44;;;14.01;77.81
56052;BME280;41919;42.648;23.384;2023-09-12T03:13:52;94811.19;;;14.18;77.08
56052;BME280;41919;42.648;23.384;2023-09-12T03:16:18;94781.91;;;14.15;75.37
56052;BME280;41919;42.648;23.384;2023-09-12T03:18:43;94793.47;;;14.14;73.42
56052;BME280;41919;42.648;23.384;2023-09-12T03:21:08;94749.34;;;13.79;73.17
56052;BME280;41919;42.648;23.384;2023-09-12T03:23:34;94747.97;;;13.58;73.61
56052;BME280;41919;42.648;23.384;2023-09-12T03:26:03;94817.38;;;13.87;74.63
56052;BME280;41919;42.648;23.384;2023-09-12T03:28:29;94819.56;;;13.71;76.02
56052;BME280;41919;42.648;23.384;2023-09-12T03:31:06;94815.44;;;13.57;76.30
56052;BME280;41919;42.648;23.384;2023-09-12T03:33:32;94807.81;;;13.49;76.94
56052;BME280;41919;42.648;23.384;2023-09-12T03:35:58;94807.94;;;13.36;78.23
56052;BME280;41919;42.648;23.384;2023-09-12T03:38:23;94812.41;;;13.28;80.81
56052;BME280;41919;42.648;23.384;2023-09-12T03:40:49;94802.28;;;13.07;82.68
56052;BME280;41919;42.648;23.384;2023-09-12T03:43:14;94758.28;;;12.77;82.27
56052;BME280;41919;42.648;23.384;2023-09-12T03:45:40;94824.16;;;13.19;82.37
56052;BME280;41919;42.648;23.384;2023-09-12T03:48:05;94823.59;;;13.17;82.60
56052;BME280;41919;42.648;23.384;2023-09-12T03:50:30;94818.06;;;13.00;83.18
56052;BME280;41919;42.648;23.384;2023-09-12T03:52:56;94765.19;;;12.71;83.97
56052;BME280;41919;42.648;23.384;2023-09-12T03:55:22;94822.66;;;13.05;84.40
56052;BME280;41919;42.648;23.384;2023-09-12T03:57:47;94832.56;;;13.03;84.36
56052;BME280;41919;42.648;23.384;2023-09-12T04:00:13;94817.97;;;12.82;86.01
56052;BME280;41919;42.648;23.384;2023-09-12T04:02:39;94767.38;;;12.43;86.83
56052;BME280;41919;42.648;23.384;2023-09-12T04:05:04;94814.25;;;12.58;87.37
56052;BME280;41919;42.648;23.384;2023-09-12T04:07:30;94838.63;;;12.65;88.33
56052;BME280;41919;42.648;23.384;2023-09-12T04:09:55;94824.16;;;12.55;88.44
56052;BME280;41919;42.648;23.384;2023-09-12T04:12:20;94833.38;;;12.65;88.11
56052;BME280;41919;42.648;23.384;2023-09-12T04:14:49;94817.25;;;12.61;86.41
56052;BME280;41919;42.648;23.384;2023-09-12T04:17:15;94782.28;;;12.42;86.35
56052;BME280;41919;42.648;23.384;2023-09-12T04:19:40;94822.19;;;12.83;85.04
56052;BME280;41919;42.648;23.384;2023-09-12T04:22:05;94831.97;;;13.01;84.45
56052;BME280;41919;42.648;23.384;2023-09-12T04:24:31;94766.91;;;12.52;84.77
56052;BME280;41919;42.648;23.384;2023-09-12T04:26:56;94841.25;;;13.03;84.89
56052;BME280;41919;42.648;23.384;2023-09-12T04:29:22;94807.41;;;12.88;85.17
56052;BME280;41919;42.648;23.384;2023-09-12T04:31:47;94829.38;;;12.94;85.60
56052;BME280;41919;42.648;23.384;2023-09-12T04:34:12;94783.22;;;12.86;83.94
56052;BME280;41919;42.648;23.384;2023-09-12T04:36:38;94821.72;;;13.24;83.16
56052;BME280;41919;42.648;23.384;2023-09-12T04:39:03;94839.03;;;13.39;82.49
56052;BME280;41919;42.648;23.384;2023-09-12T04:41:30;94828.94;;;13.36;82.59
56052;BME280;41919;42.648;23.384;2023-09-12T04:43:55;94779.03;;;13.10;82.27
56052;BME280;41919;42.648;23.384;2023-09-12T04:46:21;94839.16;;;13.69;80.92
56052;BME280;41919;42.648;23.384;2023-09-12T04:48:46;94841.91;;;13.81;79.21
56052;BME280;41919;42.648;23.384;2023-09-12T04:51:11;94849.94;;;14.04;77.47
56052;BME280;41919;42.648;23.384;2023-09-12T04:53:37;94829.88;;;14.10;77.13
56052;BME280;41919;42.648;23.384;2023-09-12T04:56:03;94742.50;;;13.78;75.51
56052;BME280;41919;42.648;23.384;2023-09-12T04:58:29;94833.81;;;14.56;74.81
56052;BME280;41919;42.648;23.384;2023-09-12T05:00:55;94836.94;;;14.65;74.06
56052;BME280;41919;42.648;23.384;2023-09-12T05:03:22;94841.75;;;14.86;73.59
56052;BME280;41919;42.648;23.384;2023-09-12T05:05:48;94771.34;;;14.51;72.53
56052;BME280;41919;42.648;23.384;2023-09-12T05:08:13;94795.75;;;14.89;70.40
56052;BME280;41919;42.648;23.384;2023-09-12T05:10:39;94792.72;;;15.04;69.66
56052;BME280;41919;42.648;23.384;2023-09-12T05:13:05;94845.13;;;15.59;68.62
56052;BME280;41919;42.648;23.384;2023-09-12T05:15:30;94846.72;;;15.72;67.81
56052;BME280;41919;42.648;23.384;2023-09-12T05:17:55;94799.75;;;15.45;67.27
56052;BME280;41919;42.648;23.384;2023-09-12T05:20:21;94842.41;;;15.78;66.79
56052;BME280;41919;42.648;23.384;2023-09-12T05:22:46;94857.88;;;16.10;65.62
56052;BME280;41919;42.648;23.384;2023-09-12T05:25:12;94852.94;;;16.25;64.84
56052;BME280;41919;42.648;23.384;2023-09-12T05:27:37;94850.84;;;16.39;64.00
56052;BME280;41919;42.648;23.384;2023-09-12T05:30:03;94844.28;;;16.53;63.90
56052;BME280;41919;42.648;23.384;2023-09-12T05:32:28;94853.06;;;16.82;62.43
56052;BME280;41919;42.648;23.384;2023-09-12T05:34:54;94798.75;;;16.87;60.80
56052;BME280;41919;42.648;23.384;2023-09-12T05:37:19;94849.97;;;17.48;59.64
56052;BME280;41919;42.648;23.384;2023-09-12T05:39:46;94844.31;;;17.90;57.74
56052;BME280;41919;42.648;23.384;2023-09-12T05:42:11;94843.00;;;18.10;56.61
56052;BME280;41919;42.648;23.384;2023-09-12T05:44:37;94854.19;;;18.56;55.04
56052;BME280;41919;42.648;23.384;2023-09-12T05:47:03;94865.53;;;18.95;52.51
56052;BME280;41919;42.648;23.384;2023-09-12T05:49:28;94853.16;;;19.01;51.35
56052;BME280;41919;42.648;23.384;2023-09-12T05:51:54;94842.16;;;19.14;50.97
56052;BME280;41919;42.648;23.384;2023-09-12T05:54:19;94818.69;;;19.93;48.41
56052;BME280;41919;42.648;23.384;2023-09-12T05:56:45;94847.25;;;20.71;46.76
56052;BME280;41919;42.648;23.384;2023-09-12T05:59:10;94836.31;;;21.46;44.83
56052;BME280;41919;42.648;23.384;2023-09-12T06:01:35;94850.91;;;21.74;43.45
56052;BME280;41919;42.648;23.384;2023-09-12T06:04:01;94845.56;;;22.10;42.61
56052;BME280;41919;42.648;23.384;2023-09-12T06:06:27;94851.94;;;22.14;41.59
56052;BME280;41919;42.648;23.384;2023-09-12T06:08:53;94782.06;;;22.63;40.07
56052;BME280;41919;42.648;23.384;2023-09-12T06:11:18;94834.00;;;23.95;37.90
56052;BME280;41919;42.648;23.384;2023-09-12T06:13:44;94838.91;;;24.65;35.49
56052;BME280;41919;42.648;23.384;2023-09-12T06:16:09;94837.34;;;25.64;33.68
56052;BME280;41919;42.648;23.384;2023-09-12T06:18:35;94826.47;;;26.07;31.86
56052;BME280;41919;42.648;23.384;2023-09-12T06:21:00;94845.16;;;26.40;32.35
56052;BME280;41919;42.648;23.384;2023-09-12T06:23:31;94846.34;;;27.53;29.68
56052;BME280;41919;42.648;23.384;2023-09-12T06:25:56;94851.59;;;27.22;29.52
56052;BME280;41919;42.648;23.384;2023-09-12T06:28:29;94835.94;;;28.60;27.81
56052;BME280;41919;42.648;23.384;2023-09-12T06:30:56;94837.72;;;29.65;26.75
56052;BME280;41919;42.648;23.384;2023-09-12T06:33:23;94851.78;;;31.00;25.46
56052;BME280;41919;42.648;23.384;2023-09-12T06:35:49;94807.25;;;31.57;23.55
56052;BME280;41919;42.648;23.384;2023-09-12T06:38:15;94838.97;;;32.73;22.40
56052;BME280;41919;42.648;23.384;2023-09-12T06:40:42;94814.97;;;32.84;21.34
56052;BME280;41919;42.648;23.384;2023-09-12T06:43:08;94810.50;;;33.81;20.37
56052;BME280;41919;42.648;23.384;2023-09-12T06:45:33;94814.97;;;34.33;20.40
56052;BME280;41919;42.648;23.384;2023-09-12T06:48:02;94851.28;;;35.44;19.28
56052;BME280;41919;42.648;23.384;2023-09-12T06:50:27;94810.97;;;35.10;19.12
56052;BME280;41919;42.648;23.384;2023-09-12T06:52:52;94811.31;;;33.69;19.93
56052;BME280;41919;42.648;23.384;2023-09-12T06:55:18;94847.63;;;32.54;21.73
56052;BME280;41919;42.648;23.384;2023-09-12T06:57:43;94851.22;;;32.33;21.72
56052;BME280;41919;42.648;23.384;2023-09-12T07:00:09;94854.41;;;33.09;21.25
56052;BME280;41919;42.648;23.384;2023-09-12T07:02:35;94846.91;;;33.55;20.84
56052;BME280;41919;42.648;23.384;2023-09-12T07:05:00;94851.94;;;33.29;20.63
56052;BME280;41919;42.648;23.384;2023-09-12T07:07:26;94855.22;;;32.97;21.41
56052;BME280;41919;42.648;23.384;2023-09-12T07:09:51;94818.06;;;32.24;21.84
56052;BME280;41919;42.648;23.384;2023-09-12T07:12:16;94792.59;;;32.13;21.73
56052;BME280;41919;42.648;23.384;2023-09-12T07:14:42;94812.50;;;32.78;21.10
56052;BME280;41919;42.648;23.384;2023-09-12T07:17:07;94809.28;;;34.39;19.96
56052;BME280;41919;42.648;23.384;2023-09-12T07:19:33;94847.47;;;36.23;17.17
56052;BME280;41919;42.648;23.384;2023-09-12T07:21:58;94819.13;;;36.97;17.02
56052;BME280;41919;42.648;23.384;2023-09-12T07:24:30;94850.13;;;37.69;16.74
56052;BME280;41919;42.648;23.384;2023-09-12T07:26:56;94834.31;;;38.56;15.59
56052;BME280;41919;42.648;23.384;2023-09-12T07:29:23;94839.53;;;38.72;15.70
56052;BME280;41919;42.648;23.384;2023-09-12T07:31:52;94815.59;;;39.10;14.87
56052;BME280;41919;42.648;23.384;2023-09-12T07:34:17;94846.88;;;39.16;14.94
56052;BME280;41919;42.648;23.384;2023-09-12T07:36:42;94852.19;;;39.54;15.05
56052;BME280;41919;42.648;23.384;2023-09-12T07:39:08;94849.97;;;39.85;14.62
56052;BME280;41919;42.648;23.384;2023-09-12T07:41:34;94857.19;;;40.32;14.09
56052;BME280;41919;42.648;23.384;2023-09-12T07:43:59;94851.50;;;39.78;14.17
56052;BME280;41919;42.648;23.384;2023-09-12T07:46:27;94844.53;;;39.15;14.67
56052;BME280;41919;42.648;23.384;2023-09-12T07:48:52;94840.59;;;39.09;14.70
56052;BME280;41919;42.648;23.384;2023-09-12T07:51:17;94861.06;;;38.85;15.26
56052;BME280;41919;42.648;23.384;2023-09-12T07:53:43;94842.03;;;38.47;15.40
56052;BME280;41919;42.648;23.384;2023-09-12T07:56:09;94812.28;;;38.01;15.78
56052;BME280;41919;42.648;23.384;2023-09-12T07:58:37;94804.81;;;36.77;16.84
56052;BME280;41919;42.648;23.384;2023-09-12T08:01:09;94830.41;;;36.72;17.00
56052;BME280;41919;42.648;23.384;2023-09-12T08:03:35;94840.88;;;36.47;17.21
56052;BME280;41919;42.648;23.384;2023-09-12T08:06:02;94816.94;;;35.71;17.75
56052;BME280;41919;42.648;23.384;2023-09-12T08:08:29;94841.13;;;35.41;18.56
56052;BME280;41919;42.648;23.384;2023-09-12T08:10:55;94845.19;;;34.80;18.68
56052;BME280;41919;42.648;23.384;2023-09-12T08:13:22;94840.00;;;33.98;19.77
56052;BME280;41919;42.648;23.384;2023-09-12T08:15:47;94802.44;;;33.56;19.84
56052;BME280;41919;42.648;23.384;2023-09-12T08:18:12;94863.34;;;34.03;19.62
56052;BME280;41919;42.648;23.384;2023-09-12T08:20:38;94839.34;;;33.89;19.12
56052;BME280;41919;42.648;23.384;2023-09-12T08:23:03;94838.88;;;33.59;19.20
56052;BME280;41919;42.648;23.384;2023-09-12T08:25:29;94854.44;;;33.22;20.23
56052;BME280;41919;42.648;23.384;2023-09-12T08:27:54;94842.03;;;32.96;20.63
56052;BME280;41919;42.648;23.384;2023-09-12T08:30:20;94855.13;;;32.81;20.68
56052;BME280;41919;42.648;23.384;2023-09-12T08:32:45;94808.03;;;32.12;21.33
56052;BME280;41919;42.648;23.384;2023-09-12T08:35:12;94790.06;;;31.95;21.25
56052;BME280;41919;42.648;23.384;2023-09-12T08:37:41;94846.91;;;32.20;21.16
56052;BME280;41919;42.648;23.384;2023-09-12T08:40:08;94850.91;;;32.01;21.75
56052;BME280;41919;42.648;23.384;2023-09-12T08:42:41;94833.22;;;31.83;21.34
56052;BME280;41919;42.648;23.384;2023-09-12T08:45:15;94830.91;;;31.60;22.47
56052;BME280;41919;42.648;23.384;2023-09-12T08:47:41;94800.47;;;31.09;22.69
56052;BME280;41919;42.648;23.384;2023-09-12T08:50:14;94794.16;;;31.47;21.99
56052;BME280;41919;42.648;23.384;2023-09-12T08:52:42;94785.69;;;31.06;22.03
56052;BME280;41919;42.648;23.384;2023-09-12T08:55:08;94828.16;;;30.88;22.87
56052;BME280;41919;42.648;23.384;2023-09-12T08:57:37;94821.94;;;30.67;23.02
56052;BME280;41919;42.648;23.384;2023-09-12T09:00:05;94823.38;;;30.64;22.73
56052;BME280;41919;42.648;23.384;2023-09-12T09:02:40;94786.03;;;30.45;22.16
56052;BME280;41919;42.648;23.384;2023-09-12T09:05:07;94823.28;;;30.91;22.84
56052;BME280;41919;42.648;23.384;2023-09-12T09:07:35;94822.22;;;30.74;22.69
56052;BME280;41919;42.648;23.384;2023-09-12T09:10:04;94824.75;;;31.09;21.83
56052;BME280;41919;42.648;23.384;2023-09-12T09:12:35;94821.16;;;31.26;21.47
56052;BME280;41919;42.648;23.384;2023-09-12T09:15:29;94831.47;;;31.45;21.64
56052;BME280;41919;42.648;23.384;2023-09-12T09:17:56;94776.16;;;31.30;21.13
56052;BME280;41919;42.648;23.384;2023-09-12T09:20:32;94816.13;;;31.58;21.88
56052;BME280;41919;42.648;23.384;2023-09-12T09:23:04;94815.53;;;31.73;21.17
56052;BME280;41919;42.648;23.384;2023-09-12T09:25:39;94811.13;;;31.69;20.95
56052;BME280;41919;42.648;23.384;2023-09-12T09:28:26;94809.06;;;31.44;21.56
56052;BME280;41919;42.648;23.384;2023-09-12T09:30:51;94814.03;;;31.21;21.68
56052;BME280;41919;42.648;23.384;2023-09-12T09:33:20;94801.91;;;30.77;21.93
56052;BME280;41919;42.648;23.384;2023-09-12T09:35:47;94809.47;;;30.92;22.34
56052;BME280;41919;42.648;23.384;2023-09-12T09:38:13;94809.13;;;30.94;25.73
56052;BME280;41919;42.648;23.384;2023-09-12T09:40:42;94768.66;;;30.64;22.06
56052;BME280;41919;42.648;23.384;2023-09-12T09:43:07;94797.22;;;30.65;22.92
56052;BME280;41919;42.648;23.384;2023-09-12T09:45:42;94801.31;;;30.62;22.88
56052;BME280;41919;42.648;23.384;2023-09-12T09:48:08;94808.56;;;29.85;23.13
56052;BME280;41919;42.648;23.384;2023-09-12T09:50:34;94772.25;;;29.91;22.67
56052;BME280;41919;42.648;23.384;2023-09-12T09:53:04;94789.69;;;29.94;22.67
56052;BME280;41919;42.648;23.384;2023-09-12T09:55:34;94786.69;;;29.86;23.62
56052;BME280;41919;42.648;23.384;2023-09-12T09:57:59;94777.19;;;29.71;24.16
56052;BME280;41919;42.648;23.384;2023-09-12T10:00:25;94779.28;;;29.48;22.76
56052;BME280;41919;42.648;23.384;2023-09-12T10:02:53;94783.38;;;29.63;23.33
56052;BME280;41919;42.648;23.384;2023-09-12T10:05:20;94756.78;;;29.36;24.06
56052;BME280;41919;42.648;23.384;2023-09-12T10:07:49;94766.59;;;29.49;22.86
56052;BME280;41919;42.648;23.384;2023-09-12T10:10:16;94725.28;;;29.19;23.30
56052;BME280;41919;42.648;23.384;2023-09-12T10:12:48;94783.56;;;29.41;23.38
56052;BME280;41919;42.648;23.384;2023-09-12T10:15:15;94786.56;;;29.39;23.12
56052;BME280;41919;42.648;23.384;2023-09-12T10:17:45;94776.25;;;29.50;23.62
56052;BME280;41919;42.648;23.384;2023-09-12T10:20:20;94758.22;;;29.42;24.70
56052;BME280;41919;42.648;23.384;2023-09-12T10:22:59;94770.09;;;29.15;25.20
56052;BME280;41919;42.648;23.384;2023-09-12T10:25:27;94717.03;;;28.80;24.61
56052;BME280;41919;42.648;23.384;2023-09-12T10:27:54;94773.63;;;28.58;24.84
56052;BME280;41919;42.648;23.384;2023-09-12T10:30:21;94761.97;;;27.91;25.75
56052;BME280;41919;42.648;23.384;2023-09-12T10:32:48;94723.50;;;27.28;26.04
56052;BME280;41919;42.648;23.384;2023-09-12T10:35:14;94754.09;;;27.49;26.14
56052;BME280;41919;42.648;23.384;2023-09-12T10:37:41;94660.72;;;26.92;26.34
56052;BME280;41919;42.648;23.384;2023-09-12T10:40:11;94765.38;;;27.83;26.89
56052;BME280;41919;42.648;23.384;2023-09-12T10:42:39;94722.94;;;27.62;26.89
56052;BME280;41919;42.648;23.384;2023-09-12T10:45:05;94757.28;;;28.05;26.73
56052;BME280;41919;42.648;23.384;2023-09-12T10:47:34;94754.13;;;28.03;27.12
56052;BME280;41919;42.648;23.384;2023-09-12T10:50:00;94748.13;;;28.06;27.08
56052;BME280;41919;42.648;23.384;2023-09-12T10:52:27;94743.34;;;27.94;27.40
56052;BME280;41919;42.648;23.384;2023-09-12T10:54:52;94746.34;;;27.93;26.95
56052;BME280;41919;42.648;23.384;2023-09-12T10:57:19;94745.75;;;28.05;26.90
56052;BME280;41919;42.648;23.384;2023-09-12T11:02:35;94726.28;;;27.99;26.67
56052;BME280;41919;42.648;23.384;2023-09-12T11:05:03;94674.34;;;27.72;27.18
56052;BME280;41919;42.648;23.384;2023-09-12T11:12:44;94723.84;;;28.11;26.91
56052;BME280;41919;42.648;23.384;2023-09-12T11:15:13;94687.84;;;27.90;26.65
56052;BME280;41919;42.648;23.384;2023-09-12T11:17:44;94690.63;;;27.76;26.18
56052;BME280;41919;42.648;23.384;2023-09-12T11:20:11;94724.47;;;27.86;26.25
56052;BME280;41919;42.648;23.384;2023-09-12T11:22:42;94713.00;;;27.94;26.99
56052;BME280;41919;42.648;23.384;2023-09-12T11:25:25;94723.84;;;28.11;26.71
56052;BME280;41919;42.648;23.384;2023-09-12T11:30:21;94706.94;;;28.20;26.18
56052;BME280;41919;42.648;23.384;2023-09-12T11:32:49;94707.38;;;28.13;27.32
56052;BME280;41919;42.648;23.384;2023-09-12T11:35:21;94700.38;;;28.03;26.06
56052;BME280;41919;42.648;23.384;2023-09-12T11:37:52;94700.47;;;28.29;25.83
56052;BME280;41919;42.648;23.384;2023-09-12T11:40:40;94703.97;;;28.30;25.04
56052;BME280;41919;42.648;23.384;2023-09-12T11:43:06;94684.00;;;28.13;25.86
56052;BME280;41919;42.648;23.384;2023-09-12T11:45:33;94639.66;;;27.85;25.69
56052;BME280;41919;42.648;23.384;2023-09-12T11:48:02;94695.13;;;28.38;25.61
56052;BME280;41919;42.648;23.384;2023-09-12T11:50:33;94693.91;;;28.53;25.61
56052;BME280;41919;42.648;23.384;2023-09-12T11:53:09;94667.34;;;28.51;25.16
56052;BME280;41919;42.648;23.384;2023-09-12T11:55:37;94679.84;;;28.82;25.13
56052;BME280;41919;42.648;23.384;2023-09-12T11:58:03;94677.16;;;28.82;25.22
56052;BME280;41919;42.648;23.384;2023-09-12T12:00:29;94646.13;;;28.41;24.65
56052;BME280;41919;42.648;23.384;2023-09-12T12:02:55;94685.06;;;28.52;24.72
56052;BME280;41919;42.648;23.384;2023-09-12T12:05:21;94633.72;;;28.05;26.03
56052;BME280;41919;42.648;23.384;2023-09-12T12:07:48;94684.22;;;28.34;24.84
56052;BME280;41919;42.648;23.384;2023-09-12T12:10:15;94682.50;;;28.47;25.65
56052;BME280;41919;42.648;23.384;2023-09-12T12:12:44;94680.03;;;28.60;25.32
56052;BME280;41919;42.648;23.384;2023-09-12T12:15:12;94659.59;;;28.59;25.41
56052;BME280;41919;42.648;23.384;2023-09-12T12:17:40;94669.59;;;28.84;24.69
56052;BME280;41919;42.648;23.384;2023-09-12T12:20:07;94659.13;;;28.91;24.75
56052;BME280;41919;42.648;23.384;2023-09-12T12:22:38;94579.72;;;28.50;24.80
56052;BME280;41919;42.648;23.384;2023-09-12T12:25:08;94665.78;;;29.11;24.46
56052;BME280;41919;42.648;23.384;2023-09-12T12:27:41;94667.22;;;29.18;24.41
56052;BME280;41919;42.648;23.384;2023-09-12T12:30:12;94639.50;;;29.08;24.60
56052;BME280;41919;42.648;23.384;2023-09-12T12:32:42;94615.00;;;28.84;24.47
56052;BME280;41919;42.648;23.384;2023-09-12T12:35:16;94659.91;;;29.09;24.48
56052;BME280;41919;42.648;23.384;2023-09-12T12:37:41;94643.47;;;28.93;24.69
56052;BME280;41919;42.648;23.384;2023-09-12T12:40:11;94644.28;;;28.94;24.13
56052;BME280;41919;42.648;23.384;2023-09-12T12:42:39;94655.66;;;29.00;24.63
56052;BME280;41919;42.648;23.384;2023-09-12T12:45:14;94658.00;;;29.10;24.41
56052;BME280;41919;42.648;23.384;2023-09-12T12:47:41;94654.38;;;29.06;25.03
56052;BME280;41919;42.648;23.384;2023-09-12T12:50:16;94606.75;;;28.80;24.92
56052;BME280;41919;42.648;23.384;2023-09-12T12:52:47;94649.47;;;29.25;24.70
56052;BME280;41919;42.648;23.384;2023-09-12T12:55:13;94642.97;;;29.26;24.09
56052;BME280;41919;42.648;23.384;2023-09-12T12:57:43;94644.72;;;29.22;24.10
56052;BME280;41919;42.648;23.384;2023-09-12T13:00:10;94638.38;;;29.27;24.30
56052;BME280;41919;42.648;23.384;2023-09-12T13:02:39;94634.78;;;29.14;24.40
56052;BME280;41919;42.648;23.384;2023-09-12T13:05:07;94635.06;;;29.21;24.61